Huvudsida
METAR-TAF:

METAR-TAF

Flygplatser :

Tartus flygplats

Tartu, Estland

latitud: 58-18N, longitud: 026-44E, höjd: 59 m

Aktuellt väderrapport

Denna rapport gjordes för 1 timme och 1 minuter sedan, klockan 08:50 UTC
Vind 9 kt från nord/nordväst
Temperatur 24°C
Fuktighet 36%
Tryck 1025 hPa
Sikt 10 km eller mer

METAR: EETU 270850Z AUTO 34009KT 9999 NCD 24/08 Q1025

Tid: 12:51 (09:51 UTC)


TAF: saknas

Aktuella väderrapporter och prognoser från 4000 flygplatser (METAR- och TAF-rapporter).

De tillgängliga stationerna syns som gula och röda prickar på kartan.

För musen över prickarna för att se namnen på stationerna.

Klicka sedan för att få väderrapporter och prognoser.

För att ändra kartan: Klicka på de gröna knapparna med ett svart kors på för att zooma in; den gröna knappen med ett streck på för att zooma ut; eller på de gröna pilarna för angränsande kartor.


METAR-TAF: